Terminal Aerodrome Forecast
Issued by NWS Mt. Holly, NJ

Home | Current Version | Previous Version | Text Only | Print | Product List | Glossary On
Versions: 1 2 3 4 5 6 7 8 9 10 11 12 13 14 15 16 17
254
FTUS41 KPHI 221741
TAFABE
TAF
KABE 221741Z 2218/2318 VRB04KT P6SM FEW200
     FM222000 24005KT P6SM VCTS SCT060CB BKN100
      TEMPO 2222/2302 2SM +TSRA OVC025CB
     FM230200 VRB03KT P6SM VCTS OVC050CB
      TEMPO 2302/2306 4SM TSRA OVC025CB
     FM230700 VRB03KT 5SM BR BKN015
     FM231300 VRB03KT P6SM BKN025
     FM231700 00000KT P6SM BKN045=

USA.gov is the U.S. government's official web portal to all federal, state and local government web resources and services.